Hundvaag 1 weather for Oct 2007
Month no. 244
Obs.
Da.
Temp. Dew Point Precip. Wind
Speed
Wind gusts Cloud cover Press. Humidity Wind dir. Sunny OPT
01.10.2007 9,2   0,2 9,0   3 1022,3 84,0 315,0 1 65,0 %
02.10.2007 7,3   0,0 0,0   7 1024,0 90,0 67,5 1 77,5 %
03.10.2007 7,6   0,0 0,0   8 1022,0 90,0 90,0 1 82,5 %
04.10.2007 11,1   0,0 0,0   2 1018,3 75,0 67,5   70,0 %
05.10.2007 10,6   0,2 0,0   3 1025,7 87,0 45,0 1 72,5 %
06.10.2007 8,1   0,0 1,0   10 1027,4 83,0 225,0 1 87,5 %
07.10.2007 10,3   1,3 3,0   1 1021,0 87,0 247,5   67,5 %
08.10.2007 7,8   0,9 3,0   3 1021,3 77,0 0,0 1 70,0 %
09.10.2007 5,1   0,0 0,0   10 1023,4 88,0 157,5 1 85,0 %
10.10.2007 7,9   0,0 3,0   8 1024,7 68,0 315,0 1 82,5 %
11.10.2007 9,7   0,0 8,0   0 1018,6 75,0 157,5   57,5 %
12.10.2007 9,3   14,5 2,0   10 1014,2 85,0 315,0 1 77,5 %
13.10.2007 8,9   0,0 0,0   0 1025,7 84,0 180,0   62,5 %
14.10.2007 12,4   8,7 4,0   0 1017,9 92,0 202,5   57,5 %
15.10.2007 11,8   4,3 1,0   3 1011,8 81,0 180,0 1 70,0 %
16.10.2007 11,6   1,4 1,0   4 1002,0 86,0 180,0 1 75,0 %
17.10.2007 8,2   2,8 5,0   4 1006,4 84,0 270,0 1 70,0 %
18.10.2007 5,7   2,5 14,0   9 1020,3 75,0 22,5 1 75,0 %
19.10.2007 4,4   0,0 2,0   10 1031,8 72,0 0,0 1 82,5 %
20.10.2007 6,8   0,0 1,0   0 1034,9 63,0 67,5   60,0 %
21.10.2007 9,1   0,0 1,0   1 1030,8 84,0 202,5 1 65,0 %
22.10.2007 10,4   1,0 3,0   0 1026,1 83,0 157,5 1 65,0 %
23.10.2007 9,7   0,2 11,0   2 1030,5 71,0 157,5   60,0 %
24.10.2007 6,9   0,0 0,0   10 1034,5 81,0 112,5 1 85,0 %
25.10.2007 3,8   0,0 1,0   9 1032,8 90,0 180,0 1 80,0 %
26.10.2007 7,5   0,0 6,0   8 1025,4 65,0 180,0 1 80,0 %
27.10.2007 10,1   0,2 14,0   0 1020,3 80,0 157,5   57,5 %
28.10.2007 12,4   4,1 14,0   0 1004,7 92,0 180,0   55,0 %
29.10.2007 9,0   19,0 6,0   7 1001,4 88,0 225,0 1 62,5 %
30.10.2007 6,4   3,2 9,0   4 1008,1 72,0 247,5 1 62,5 %
31.10.2007 6,7   1,3 5,0   0 1014,9 86,0 112,5   57,5 %
Avrg/Sum 8,6   65,8 4,1   4,4 1020,8 81,2 161,9 21 70,2 %